sensor_id;sensor_type;location;lat;lon;timestamp;temperature;humidity
52125;DHT22;38119;52.710;6.398;2023-03-14T00:00:12;11.40;99.90
52125;DHT22;38119;52.710;6.398;2023-03-14T00:02:39;10.70;99.90
52125;DHT22;38119;52.710;6.398;2023-03-14T00:05:05;11.40;99.90
52125;DHT22;38119;52.710;6.398;2023-03-14T00:07:35;10.70;99.90
52125;DHT22;38119;52.710;6.398;2023-03-14T00:10:09;11.50;99.90
52125;DHT22;38119;52.710;6.398;2023-03-14T00:12:35;10.80;99.90
52125;DHT22;38119;52.710;6.398;2023-03-14T00:15:01;11.70;99.90
52125;DHT22;38119;52.710;6.398;2023-03-14T00:17:29;11.60;99.90
52125;DHT22;38119;52.710;6.398;2023-03-14T00:19:55;11.20;99.90
52125;DHT22;38119;52.710;6.398;2023-03-14T00:22:21;11.40;99.90
52125;DHT22;38119;52.710;6.398;2023-03-14T00:24:47;10.90;99.90
52125;DHT22;38119;52.710;6.398;2023-03-14T00:27:13;10.80;99.90
52125;DHT22;38119;52.710;6.398;2023-03-14T00:29:38;11.00;99.90
52125;DHT22;38119;52.710;6.398;2023-03-14T00:32:04;11.30;99.90
52125;DHT22;38119;52.710;6.398;2023-03-14T00:34:31;10.90;99.90
52125;DHT22;38119;52.710;6.398;2023-03-14T00:36:57;11.60;99.90
52125;DHT22;38119;52.710;6.398;2023-03-14T00:39:23;11.40;99.90
52125;DHT22;38119;52.710;6.398;2023-03-14T00:41:48;11.00;99.90
52125;DHT22;38119;52.710;6.398;2023-03-14T00:44:14;11.70;99.90
52125;DHT22;38119;52.710;6.398;2023-03-14T00:46:39;11.00;99.90
52125;DHT22;38119;52.710;6.398;2023-03-14T00:49:05;11.00;99.90
52125;DHT22;38119;52.710;6.398;2023-03-14T00:51:30;11.60;99.90
52125;DHT22;38119;52.710;6.398;2023-03-14T00:53:56;11.10;99.90
52125;DHT22;38119;52.710;6.398;2023-03-14T00:56:22;10.80;99.90
52125;DHT22;38119;52.710;6.398;2023-03-14T00:58:47;10.70;99.90
52125;DHT22;38119;52.710;6.398;2023-03-14T01:01:16;11.60;99.90
52125;DHT22;38119;52.710;6.398;2023-03-14T01:03:42;11.40;99.90
52125;DHT22;38119;52.710;6.398;2023-03-14T01:06:27;10.80;99.90
52125;DHT22;38119;52.710;6.398;2023-03-14T01:08:53;11.70;99.90
52125;DHT22;38119;52.710;6.398;2023-03-14T01:11:23;10.80;99.90
52125;DHT22;38119;52.710;6.398;2023-03-14T01:13:49;11.00;99.90
52125;DHT22;38119;52.710;6.398;2023-03-14T01:16:16;10.90;99.90
52125;DHT22;38119;52.710;6.398;2023-03-14T01:18:43;11.90;99.90
52125;DHT22;38119;52.710;6.398;2023-03-14T01:21:22;10.80;99.90
52125;DHT22;38119;52.710;6.398;2023-03-14T01:23:49;10.90;99.90
52125;DHT22;38119;52.710;6.398;2023-03-14T01:26:17;10.90;99.90
52125;DHT22;38119;52.710;6.398;2023-03-14T01:28:44;10.90;99.90
52125;DHT22;38119;52.710;6.398;2023-03-14T01:31:10;10.80;99.90
52125;DHT22;38119;52.710;6.398;2023-03-14T01:33:37;10.80;99.90
52125;DHT22;38119;52.710;6.398;2023-03-14T01:36:03;11.30;99.90
52125;DHT22;38119;52.710;6.398;2023-03-14T01:38:30;10.70;99.90
52125;DHT22;38119;52.710;6.398;2023-03-14T01:40:57;11.60;99.90
52125;DHT22;38119;52.710;6.398;2023-03-14T01:43:23;10.60;99.90
52125;DHT22;38119;52.710;6.398;2023-03-14T01:49:06;10.70;99.90
52125;DHT22;38119;52.710;6.398;2023-03-14T01:51:38;10.60;99.90
52125;DHT22;38119;52.710;6.398;2023-03-14T01:54:28;10.60;99.90
52125;DHT22;38119;52.710;6.398;2023-03-14T01:57:00;11.10;99.90
52125;DHT22;38119;52.710;6.398;2023-03-14T01:59:29;10.60;99.90
52125;DHT22;38119;52.710;6.398;2023-03-14T02:01:55;10.60;99.90
52125;DHT22;38119;52.710;6.398;2023-03-14T02:04:22;11.10;99.90
52125;DHT22;38119;52.710;6.398;2023-03-14T02:09:30;10.70;99.90
52125;DHT22;38119;52.710;6.398;2023-03-14T02:11:56;11.20;99.90
52125;DHT22;38119;52.710;6.398;2023-03-14T02:14:32;11.50;99.90
52125;DHT22;38119;52.710;6.398;2023-03-14T02:17:00;10.70;99.90
52125;DHT22;38119;52.710;6.398;2023-03-14T02:19:37;10.80;99.90
52125;DHT22;38119;52.710;6.398;2023-03-14T02:22:11;10.60;99.90
52125;DHT22;38119;52.710;6.398;2023-03-14T02:27:16;11.70;99.90
52125;DHT22;38119;52.710;6.398;2023-03-14T02:29:51;10.60;99.90
52125;DHT22;38119;52.710;6.398;2023-03-14T02:32:18;10.40;99.90
52125;DHT22;38119;52.710;6.398;2023-03-14T02:34:49;11.20;99.90
52125;DHT22;38119;52.710;6.398;2023-03-14T02:37:17;10.20;99.90
52125;DHT22;38119;52.710;6.398;2023-03-14T02:39:45;10.30;99.90
52125;DHT22;38119;52.710;6.398;2023-03-14T02:42:12;10.20;99.90
52125;DHT22;38119;52.710;6.398;2023-03-14T02:44:50;10.60;99.90
52125;DHT22;38119;52.710;6.398;2023-03-14T02:47:17;10.40;99.90
52125;DHT22;38119;52.710;6.398;2023-03-14T02:49:44;10.20;99.90
52125;DHT22;38119;52.710;6.398;2023-03-14T02:52:09;10.10;99.90
52125;DHT22;38119;52.710;6.398;2023-03-14T02:54:35;11.20;99.90
52125;DHT22;38119;52.710;6.398;2023-03-14T02:57:03;11.20;99.90
52125;DHT22;38119;52.710;6.398;2023-03-14T02:59:28;10.60;99.90
52125;DHT22;38119;52.710;6.398;2023-03-14T03:01:54;10.00;99.90
52125;DHT22;38119;52.710;6.398;2023-03-14T03:04:19;9.80;99.90
52125;DHT22;38119;52.710;6.398;2023-03-14T03:06:45;10.40;99.90
52125;DHT22;38119;52.710;6.398;2023-03-14T03:09:10;11.10;99.90
52125;DHT22;38119;52.710;6.398;2023-03-14T03:11:36;9.70;99.90
52125;DHT22;38119;52.710;6.398;2023-03-14T03:14:02;10.30;99.90
52125;DHT22;38119;52.710;6.398;2023-03-14T03:16:27;9.80;99.90
52125;DHT22;38119;52.710;6.398;2023-03-14T03:18:53;9.70;99.90
52125;DHT22;38119;52.710;6.398;2023-03-14T03:21:18;9.70;99.90
52125;DHT22;38119;52.710;6.398;2023-03-14T03:23:48;9.70;99.90
52125;DHT22;38119;52.710;6.398;2023-03-14T03:26:14;9.70;99.90
52125;DHT22;38119;52.710;6.398;2023-03-14T03:28:39;9.70;99.90
52125;DHT22;38119;52.710;6.398;2023-03-14T03:31:10;10.40;99.90
52125;DHT22;38119;52.710;6.398;2023-03-14T03:33:36;10.80;99.90
52125;DHT22;38119;52.710;6.398;2023-03-14T03:36:02;10.40;99.90
52125;DHT22;38119;52.710;6.398;2023-03-14T03:38:28;9.70;99.90
52125;DHT22;38119;52.710;6.398;2023-03-14T03:40:53;9.70;99.90
52125;DHT22;38119;52.710;6.398;2023-03-14T03:43:19;10.50;99.90
52125;DHT22;38119;52.710;6.398;2023-03-14T03:45:44;9.70;99.90
52125;DHT22;38119;52.710;6.398;2023-03-14T03:48:10;9.70;99.90
52125;DHT22;38119;52.710;6.398;2023-03-14T03:50:36;9.70;99.90
52125;DHT22;38119;52.710;6.398;2023-03-14T03:53:01;9.70;99.90
52125;DHT22;38119;52.710;6.398;2023-03-14T03:55:27;9.70;99.90
52125;DHT22;38119;52.710;6.398;2023-03-14T03:57:53;9.70;99.90
52125;DHT22;38119;52.710;6.398;2023-03-14T04:00:19;9.70;99.90
52125;DHT22;38119;52.710;6.398;2023-03-14T04:02:45;9.70;99.90
52125;DHT22;38119;52.710;6.398;2023-03-14T04:05:10;9.70;99.90
52125;DHT22;38119;52.710;6.398;2023-03-14T04:07:36;9.70;99.90
52125;DHT22;38119;52.710;6.398;2023-03-14T04:10:04;9.70;99.90
52125;DHT22;38119;52.710;6.398;2023-03-14T04:12:30;9.60;99.90
52125;DHT22;38119;52.710;6.398;2023-03-14T04:14:55;9.60;99.90
52125;DHT22;38119;52.710;6.398;2023-03-14T04:17:21;9.60;99.90
52125;DHT22;38119;52.710;6.398;2023-03-14T04:19:46;9.60;99.90
52125;DHT22;38119;52.710;6.398;2023-03-14T04:22:14;9.60;99.90
52125;DHT22;38119;52.710;6.398;2023-03-14T04:24:40;9.60;99.90
52125;DHT22;38119;52.710;6.398;2023-03-14T04:27:05;9.50;99.90
52125;DHT22;38119;52.710;6.398;2023-03-14T04:29:31;9.60;99.90
52125;DHT22;38119;52.710;6.398;2023-03-14T04:31:57;9.60;99.90
52125;DHT22;38119;52.710;6.398;2023-03-14T04:34:22;9.60;99.90
52125;DHT22;38119;52.710;6.398;2023-03-14T04:36:48;9.50;99.90
52125;DHT22;38119;52.710;6.398;2023-03-14T04:39:13;9.50;99.90
52125;DHT22;38119;52.710;6.398;2023-03-14T04:41:39;9.60;99.90
52125;DHT22;38119;52.710;6.398;2023-03-14T04:44:04;9.60;99.90
52125;DHT22;38119;52.710;6.398;2023-03-14T04:46:30;9.60;99.90
52125;DHT22;38119;52.710;6.398;2023-03-14T04:48:55;9.60;99.90
52125;DHT22;38119;52.710;6.398;2023-03-14T04:51:22;9.60;99.90
52125;DHT22;38119;52.710;6.398;2023-03-14T04:53:48;9.60;99.90
52125;DHT22;38119;52.710;6.398;2023-03-14T04:56:14;9.60;99.90
52125;DHT22;38119;52.710;6.398;2023-03-14T04:58:39;9.60;99.90
52125;DHT22;38119;52.710;6.398;2023-03-14T05:01:05;9.60;99.90
52125;DHT22;38119;52.710;6.398;2023-03-14T05:03:31;9.60;99.90
52125;DHT22;38119;52.710;6.398;2023-03-14T05:05:57;9.60;99.90
52125;DHT22;38119;52.710;6.398;2023-03-14T05:08:24;9.70;99.90
52125;DHT22;38119;52.710;6.398;2023-03-14T05:10:54;9.60;99.90
52125;DHT22;38119;52.710;6.398;2023-03-14T05:13:19;9.60;99.90
52125;DHT22;38119;52.710;6.398;2023-03-14T05:15:45;9.60;99.90
52125;DHT22;38119;52.710;6.398;2023-03-14T05:18:10;9.60;99.90
52125;DHT22;38119;52.710;6.398;2023-03-14T05:20:36;9.60;99.90
52125;DHT22;38119;52.710;6.398;2023-03-14T05:23:01;9.70;99.90
52125;DHT22;38119;52.710;6.398;2023-03-14T05:25:27;9.60;99.90
52125;DHT22;38119;52.710;6.398;2023-03-14T05:27:56;9.60;99.90
52125;DHT22;38119;52.710;6.398;2023-03-14T05:30:21;9.60;99.90
52125;DHT22;38119;52.710;6.398;2023-03-14T05:32:48;9.60;99.90
52125;DHT22;38119;52.710;6.398;2023-03-14T05:35:14;9.60;99.90
52125;DHT22;38119;52.710;6.398;2023-03-14T05:37:39;9.50;99.90
52125;DHT22;38119;52.710;6.398;2023-03-14T05:40:05;9.60;99.90
52125;DHT22;38119;52.710;6.398;2023-03-14T05:42:32;9.50;99.90
52125;DHT22;38119;52.710;6.398;2023-03-14T05:44:57;9.50;99.90
52125;DHT22;38119;52.710;6.398;2023-03-14T05:47:24;9.40;99.90
52125;DHT22;38119;52.710;6.398;2023-03-14T05:49:49;9.40;99.90
52125;DHT22;38119;52.710;6.398;2023-03-14T05:52:15;9.40;99.90
52125;DHT22;38119;52.710;6.398;2023-03-14T05:54:41;9.30;99.90
52125;DHT22;38119;52.710;6.398;2023-03-14T05:57:06;9.30;99.90
52125;DHT22;38119;52.710;6.398;2023-03-14T05:59:32;9.30;99.90
52125;DHT22;38119;52.710;6.398;2023-03-14T06:01:57;9.30;99.90
52125;DHT22;38119;52.710;6.398;2023-03-14T06:04:24;9.30;99.90
52125;DHT22;38119;52.710;6.398;2023-03-14T06:06:49;9.30;99.90
52125;DHT22;38119;52.710;6.398;2023-03-14T06:09:15;9.30;99.90
52125;DHT22;38119;52.710;6.398;2023-03-14T06:11:41;9.30;99.90
52125;DHT22;38119;52.710;6.398;2023-03-14T06:14:06;9.30;99.90
52125;DHT22;38119;52.710;6.398;2023-03-14T06:16:32;9.30;99.90
52125;DHT22;38119;52.710;6.398;2023-03-14T06:18:58;9.30;99.90
52125;DHT22;38119;52.710;6.398;2023-03-14T06:21:23;9.30;99.90
52125;DHT22;38119;52.710;6.398;2023-03-14T06:23:49;9.30;99.90
52125;DHT22;38119;52.710;6.398;2023-03-14T06:26:14;9.20;99.90
52125;DHT22;38119;52.710;6.398;2023-03-14T06:28:40;9.20;99.90
52125;DHT22;38119;52.710;6.398;2023-03-14T06:31:06;9.20;99.90
52125;DHT22;38119;52.710;6.398;2023-03-14T06:33:32;9.20;99.90
52125;DHT22;38119;52.710;6.398;2023-03-14T06:35:57;9.20;99.90
52125;DHT22;38119;52.710;6.398;2023-03-14T06:38:23;9.20;99.90
52125;DHT22;38119;52.710;6.398;2023-03-14T06:40:48;9.20;99.90
52125;DHT22;38119;52.710;6.398;2023-03-14T06:43:14;9.20;99.90
52125;DHT22;38119;52.710;6.398;2023-03-14T06:45:39;9.30;99.90
52125;DHT22;38119;52.710;6.398;2023-03-14T06:48:05;9.30;99.90
52125;DHT22;38119;52.710;6.398;2023-03-14T06:50:31;9.30;99.90
52125;DHT22;38119;52.710;6.398;2023-03-14T06:52:56;9.30;99.90
52125;DHT22;38119;52.710;6.398;2023-03-14T06:55:22;9.30;99.90
52125;DHT22;38119;52.710;6.398;2023-03-14T06:57:47;9.20;99.90
52125;DHT22;38119;52.710;6.398;2023-03-14T07:00:13;9.30;99.90
52125;DHT22;38119;52.710;6.398;2023-03-14T07:02:40;9.30;99.90
52125;DHT22;38119;52.710;6.398;2023-03-14T07:05:06;9.30;99.90
52125;DHT22;38119;52.710;6.398;2023-03-14T07:07:32;9.30;99.90
52125;DHT22;38119;52.710;6.398;2023-03-14T07:09:58;9.30;99.90
52125;DHT22;38119;52.710;6.398;2023-03-14T07:12:23;9.30;99.90
52125;DHT22;38119;52.710;6.398;2023-03-14T07:14:49;9.20;99.90
52125;DHT22;38119;52.710;6.398;2023-03-14T07:17:14;9.10;99.90
52125;DHT22;38119;52.710;6.398;2023-03-14T07:19:40;9.10;99.90
52125;DHT22;38119;52.710;6.398;2023-03-14T07:22:06;9.00;99.90
52125;DHT22;38119;52.710;6.398;2023-03-14T07:24:31;9.00;99.90
52125;DHT22;38119;52.710;6.398;2023-03-14T07:26:57;9.00;99.90
52125;DHT22;38119;52.710;6.398;2023-03-14T07:29:23;8.90;99.90
52125;DHT22;38119;52.710;6.398;2023-03-14T07:31:48;8.90;99.90
52125;DHT22;38119;52.710;6.398;2023-03-14T07:34:14;8.90;99.90
52125;DHT22;38119;52.710;6.398;2023-03-14T07:36:40;8.80;99.90
52125;DHT22;38119;52.710;6.398;2023-03-14T07:39:05;8.80;99.90
52125;DHT22;38119;52.710;6.398;2023-03-14T07:41:31;8.80;99.90
52125;DHT22;38119;52.710;6.398;2023-03-14T07:43:57;8.70;99.90
52125;DHT22;38119;52.710;6.398;2023-03-14T07:46:22;8.70;99.90
52125;DHT22;38119;52.710;6.398;2023-03-14T07:48:48;8.60;99.90
52125;DHT22;38119;52.710;6.398;2023-03-14T07:51:16;8.60;99.90
52125;DHT22;38119;52.710;6.398;2023-03-14T07:53:42;8.50;99.90
52125;DHT22;38119;52.710;6.398;2023-03-14T07:56:09;8.50;99.90
52125;DHT22;38119;52.710;6.398;2023-03-14T07:58:34;8.40;99.90
52125;DHT22;38119;52.710;6.398;2023-03-14T08:01:00;8.30;99.90
52125;DHT22;38119;52.710;6.398;2023-03-14T08:03:26;8.20;99.90
52125;DHT22;38119;52.710;6.398;2023-03-14T08:05:51;8.20;99.90
52125;DHT22;38119;52.710;6.398;2023-03-14T08:08:17;8.10;99.90
52125;DHT22;38119;52.710;6.398;2023-03-14T08:10:43;8.10;99.90
52125;DHT22;38119;52.710;6.398;2023-03-14T08:13:09;8.10;99.90
52125;DHT22;38119;52.710;6.398;2023-03-14T08:15:35;8.00;99.90
52125;DHT22;38119;52.710;6.398;2023-03-14T08:18:02;7.40;99.90
52125;DHT22;38119;52.710;6.398;2023-03-14T08:20:29;8.10;99.90
52125;DHT22;38119;52.710;6.398;2023-03-14T08:23:01;7.90;99.90
52125;DHT22;38119;52.710;6.398;2023-03-14T08:25:27;7.80;99.90
52125;DHT22;38119;52.710;6.398;2023-03-14T08:27:53;7.80;99.90
52125;DHT22;38119;52.710;6.398;2023-03-14T08:30:20;7.80;99.90
52125;DHT22;38119;52.710;6.398;2023-03-14T08:32:46;7.70;99.90
52125;DHT22;38119;52.710;6.398;2023-03-14T08:35:12;7.70;99.90
52125;DHT22;38119;52.710;6.398;2023-03-14T08:37:37;7.70;99.90
52125;DHT22;38119;52.710;6.398;2023-03-14T08:40:04;7.60;99.90
52125;DHT22;38119;52.710;6.398;2023-03-14T08:42:35;7.60;99.90
52125;DHT22;38119;52.710;6.398;2023-03-14T08:45:01;7.60;99.90
52125;DHT22;38119;52.710;6.398;2023-03-14T08:47:27;7.60;99.90
52125;DHT22;38119;52.710;6.398;2023-03-14T08:49:53;7.60;99.90
52125;DHT22;38119;52.710;6.398;2023-03-14T08:52:18;7.60;99.90
52125;DHT22;38119;52.710;6.398;2023-03-14T08:54:44;7.60;99.90
52125;DHT22;38119;52.710;6.398;2023-03-14T08:57:10;7.60;99.90
52125;DHT22;38119;52.710;6.398;2023-03-14T08:59:35;7.60;99.90
52125;DHT22;38119;52.710;6.398;2023-03-14T09:02:01;7.60;99.90
52125;DHT22;38119;52.710;6.398;2023-03-14T09:04:29;7.60;99.90
52125;DHT22;38119;52.710;6.398;2023-03-14T09:06:55;7.60;99.90
52125;DHT22;38119;52.710;6.398;2023-03-14T09:09:23;7.60;99.90
52125;DHT22;38119;52.710;6.398;2023-03-14T09:11:49;7.60;99.90
52125;DHT22;38119;52.710;6.398;2023-03-14T09:14:14;7.60;99.90
52125;DHT22;38119;52.710;6.398;2023-03-14T09:16:40;7.70;99.90
52125;DHT22;38119;52.710;6.398;2023-03-14T09:19:06;7.70;99.90
52125;DHT22;38119;52.710;6.398;2023-03-14T09:21:31;7.70;99.90
52125;DHT22;38119;52.710;6.398;2023-03-14T09:23:57;7.70;99.90
52125;DHT22;38119;52.710;6.398;2023-03-14T09:26:22;7.80;99.90
52125;DHT22;38119;52.710;6.398;2023-03-14T09:28:48;7.80;99.90
52125;DHT22;38119;52.710;6.398;2023-03-14T09:31:14;7.90;99.90
52125;DHT22;38119;52.710;6.398;2023-03-14T09:33:40;7.90;99.90
52125;DHT22;38119;52.710;6.398;2023-03-14T09:36:06;8.00;99.90
52125;DHT22;38119;52.710;6.398;2023-03-14T09:38:33;8.00;99.90
52125;DHT22;38119;52.710;6.398;2023-03-14T09:41:01;8.20;99.90
52125;DHT22;38119;52.710;6.398;2023-03-14T09:43:33;8.20;99.90
52125;DHT22;38119;52.710;6.398;2023-03-14T09:46:01;8.30;99.90
52125;DHT22;38119;52.710;6.398;2023-03-14T09:48:30;8.30;99.90
52125;DHT22;38119;52.710;6.398;2023-03-14T09:50:59;8.40;99.90
52125;DHT22;38119;52.710;6.398;2023-03-14T09:53:38;8.30;99.90
52125;DHT22;38119;52.710;6.398;2023-03-14T09:56:12;8.30;99.90
52125;DHT22;38119;52.710;6.398;2023-03-14T09:58:41;8.30;99.90
52125;DHT22;38119;52.710;6.398;2023-03-14T10:01:11;8.30;99.90
52125;DHT22;38119;52.710;6.398;2023-03-14T10:03:40;8.20;99.90
52125;DHT22;38119;52.710;6.398;2023-03-14T10:06:16;8.20;99.90
52125;DHT22;38119;52.710;6.398;2023-03-14T10:08:42;8.20;99.90
52125;DHT22;38119;52.710;6.398;2023-03-14T10:11:15;8.10;99.90
52125;DHT22;38119;52.710;6.398;2023-03-14T10:14:03;8.10;99.90
52125;DHT22;38119;52.710;6.398;2023-03-14T10:16:31;8.10;99.90
52125;DHT22;38119;52.710;6.398;2023-03-14T10:19:16;7.70;99.90
52125;DHT22;38119;52.710;6.398;2023-03-14T10:21:44;8.20;99.90
52125;DHT22;38119;52.710;6.398;2023-03-14T10:24:20;8.20;99.90
52125;DHT22;38119;52.710;6.398;2023-03-14T10:26:52;8.20;99.90
52125;DHT22;38119;52.710;6.398;2023-03-14T10:29:18;8.10;99.90
52125;DHT22;38119;52.710;6.398;2023-03-14T10:31:52;8.00;99.90
52125;DHT22;38119;52.710;6.398;2023-03-14T10:34:22;8.00;99.90
52125;DHT22;38119;52.710;6.398;2023-03-14T10:36:53;8.00;99.90
52125;DHT22;38119;52.710;6.398;2023-03-14T10:39:26;8.10;99.90
52125;DHT22;38119;52.710;6.398;2023-03-14T10:42:01;8.10;99.90
52125;DHT22;38119;52.710;6.398;2023-03-14T10:44:28;8.10;99.90
52125;DHT22;38119;52.710;6.398;2023-03-14T10:47:03;8.20;99.90
52125;DHT22;38119;52.710;6.398;2023-03-14T10:49:34;8.20;99.90
52125;DHT22;38119;52.710;6.398;2023-03-14T10:52:24;8.10;99.90
52125;DHT22;38119;52.710;6.398;2023-03-14T10:54:54;8.20;99.90
52125;DHT22;38119;52.710;6.398;2023-03-14T10:57:21;8.20;99.90
52125;DHT22;38119;52.710;6.398;2023-03-14T10:59:47;8.30;99.90
52125;DHT22;38119;52.710;6.398;2023-03-14T11:02:40;8.30;99.90
52125;DHT22;38119;52.710;6.398;2023-03-14T11:05:34;8.40;99.90
52125;DHT22;38119;52.710;6.398;2023-03-14T11:08:23;8.50;99.90
52125;DHT22;38119;52.710;6.398;2023-03-14T11:10:57;8.50;99.90
52125;DHT22;38119;52.710;6.398;2023-03-14T11:13:39;8.50;99.90
52125;DHT22;38119;52.710;6.398;2023-03-14T11:16:22;8.40;99.90
52125;DHT22;38119;52.710;6.398;2023-03-14T11:19:06;8.30;99.90
52125;DHT22;38119;52.710;6.398;2023-03-14T11:21:41;8.30;99.90
52125;DHT22;38119;52.710;6.398;2023-03-14T11:27:04;8.30;99.90
52125;DHT22;38119;52.710;6.398;2023-03-14T11:32:02;8.50;99.90
52125;DHT22;38119;52.710;6.398;2023-03-14T11:34:38;8.60;99.90
52125;DHT22;38119;52.710;6.398;2023-03-14T11:37:16;8.60;99.90
52125;DHT22;38119;52.710;6.398;2023-03-14T11:39:55;8.70;99.90
52125;DHT22;38119;52.710;6.398;2023-03-14T11:42:21;8.80;99.90
52125;DHT22;38119;52.710;6.398;2023-03-14T11:44:49;9.00;99.90
52125;DHT22;38119;52.710;6.398;2023-03-14T11:47:37;9.00;99.90
52125;DHT22;38119;52.710;6.398;2023-03-14T11:50:13;9.00;99.90
52125;DHT22;38119;52.710;6.398;2023-03-14T11:52:50;9.10;99.90
52125;DHT22;38119;52.710;6.398;2023-03-14T11:55:28;9.10;99.90
52125;DHT22;38119;52.710;6.398;2023-03-14T11:58:01;9.10;99.90
52125;DHT22;38119;52.710;6.398;2023-03-14T12:00:29;9.00;99.90
52125;DHT22;38119;52.710;6.398;2023-03-14T12:08:29;9.10;99.90
52125;DHT22;38119;52.710;6.398;2023-03-14T12:11:08;9.20;99.90
52125;DHT22;38119;52.710;6.398;2023-03-14T12:13:38;9.40;99.90
52125;DHT22;38119;52.710;6.398;2023-03-14T12:22:07;10.00;99.90
52125;DHT22;38119;52.710;6.398;2023-03-14T12:24:36;10.20;99.90
52125;DHT22;38119;52.710;6.398;2023-03-14T12:27:04;10.30;99.90
52125;DHT22;38119;52.710;6.398;2023-03-14T12:29:31;10.30;99.90
52125;DHT22;38119;52.710;6.398;2023-03-14T12:32:08;10.30;99.90
52125;DHT22;38119;52.710;6.398;2023-03-14T12:34:41;10.30;99.90
52125;DHT22;38119;52.710;6.398;2023-03-14T12:37:19;10.10;99.90
52125;DHT22;38119;52.710;6.398;2023-03-14T12:45:21;9.90;99.80
52125;DHT22;38119;52.710;6.398;2023-03-14T12:48:08;9.90;99.90
52125;DHT22;38119;52.710;6.398;2023-03-14T12:50:47;10.00;99.90
52125;DHT22;38119;52.710;6.398;2023-03-14T12:56:25;10.20;99.90
52125;DHT22;38119;52.710;6.398;2023-03-14T12:59:18;10.30;99.90
52125;DHT22;38119;52.710;6.398;2023-03-14T13:04:35;10.00;99.40
52125;DHT22;38119;52.710;6.398;2023-03-14T13:07:03;9.80;99.70
52125;DHT22;38119;52.710;6.398;2023-03-14T13:12:10;9.60;99.90
52125;DHT22;38119;52.710;6.398;2023-03-14T13:14:41;9.70;99.90
52125;DHT22;38119;52.710;6.398;2023-03-14T13:17:13;9.60;99.60
52125;DHT22;38119;52.710;6.398;2023-03-14T13:19:39;9.50;99.90
52125;DHT22;38119;52.710;6.398;2023-03-14T13:22:12;9.40;99.90
52125;DHT22;38119;52.710;6.398;2023-03-14T13:24:40;9.20;99.80
52125;DHT22;38119;52.710;6.398;2023-03-14T13:27:16;9.00;99.90
52125;DHT22;38119;52.710;6.398;2023-03-14T13:29:43;9.00;99.90
52125;DHT22;38119;52.710;6.398;2023-03-14T13:32:22;9.00;99.90
52125;DHT22;38119;52.710;6.398;2023-03-14T13:34:48;9.20;99.90
52125;DHT22;38119;52.710;6.398;2023-03-14T13:37:22;9.40;99.90
52125;DHT22;38119;52.710;6.398;2023-03-14T13:39:52;9.50;99.10
52125;DHT22;38119;52.710;6.398;2023-03-14T13:42:20;9.50;99.30
52125;DHT22;38119;52.710;6.398;2023-03-14T13:44:46;9.50;99.40
52125;DHT22;38119;52.710;6.398;2023-03-14T13:47:18;9.50;98.60
52125;DHT22;38119;52.710;6.398;2023-03-14T13:49:45;9.60;97.80
52125;DHT22;38119;52.710;6.398;2023-03-14T13:54:56;9.60;96.30
52125;DHT22;38119;52.710;6.398;2023-03-14T13:57:21;9.50;95.90
52125;DHT22;38119;52.710;6.398;2023-03-14T14:00:06;9.50;95.40
52125;DHT22;38119;52.710;6.398;2023-03-14T14:02:37;9.40;95.80
52125;DHT22;38119;52.710;6.398;2023-03-14T14:05:03;9.40;95.50
52125;DHT22;38119;52.710;6.398;2023-03-14T14:07:30;9.30;96.10
52125;DHT22;38119;52.710;6.398;2023-03-14T14:09:56;9.50;97.00
52125;DHT22;38119;52.710;6.398;2023-03-14T14:17:51;9.70;96.60
52125;DHT22;38119;52.710;6.398;2023-03-14T14:22:50;9.50;96.20
52125;DHT22;38119;52.710;6.398;2023-03-14T14:25:19;9.40;96.10
52125;DHT22;38119;52.710;6.398;2023-03-14T14:27:48;9.30;97.00
52125;DHT22;38119;52.710;6.398;2023-03-14T14:32:43;9.20;97.20
52125;DHT22;38119;52.710;6.398;2023-03-14T14:35:32;9.10;96.70
52125;DHT22;38119;52.710;6.398;2023-03-14T14:38:00;8.80;96.40
52125;DHT22;38119;52.710;6.398;2023-03-14T14:40:30;8.60;95.90
52125;DHT22;38119;52.710;6.398;2023-03-14T14:43:03;8.40;96.40
52125;DHT22;38119;52.710;6.398;2023-03-14T14:45:29;8.40;96.70
52125;DHT22;38119;52.710;6.398;2023-03-14T14:47:58;8.60;97.50
52125;DHT22;38119;52.710;6.398;2023-03-14T14:53:20;9.00;96.00
52125;DHT22;38119;52.710;6.398;2023-03-14T14:55:50;9.00;94.70
52125;DHT22;38119;52.710;6.398;2023-03-14T14:58:24;8.90;94.30
52125;DHT22;38119;52.710;6.398;2023-03-14T15:00:57;8.80;94.20
52125;DHT22;38119;52.710;6.398;2023-03-14T15:03:26;8.70;94.90
52125;DHT22;38119;52.710;6.398;2023-03-14T15:05:53;8.60;95.70
52125;DHT22;38119;52.710;6.398;2023-03-14T15:08:21;8.60;95.80
52125;DHT22;38119;52.710;6.398;2023-03-14T15:10:46;8.50;95.10
52125;DHT22;38119;52.710;6.398;2023-03-14T15:13:12;8.30;94.60
52125;DHT22;38119;52.710;6.398;2023-03-14T15:15:37;8.20;94.30
52125;DHT22;38119;52.710;6.398;2023-03-14T15:18:13;8.00;95.00
52125;DHT22;38119;52.710;6.398;2023-03-14T15:20:39;7.90;95.40
52125;DHT22;38119;52.710;6.398;2023-03-14T15:23:10;7.90;95.90
52125;DHT22;38119;52.710;6.398;2023-03-14T15:25:36;8.00;96.70
52125;DHT22;38119;52.710;6.398;2023-03-14T15:28:02;8.10;96.80
52125;DHT22;38119;52.710;6.398;2023-03-14T15:30:28;8.10;96.80
52125;DHT22;38119;52.710;6.398;2023-03-14T15:32:53;8.10;96.90
52125;DHT22;38119;52.710;6.398;2023-03-14T15:35:19;8.00;96.40
52125;DHT22;38119;52.710;6.398;2023-03-14T15:37:45;7.90;96.20
52125;DHT22;38119;52.710;6.398;2023-03-14T15:40:12;7.80;96.60
52125;DHT22;38119;52.710;6.398;2023-03-14T15:42:40;7.70;97.20
52125;DHT22;38119;52.710;6.398;2023-03-14T15:45:06;7.60;98.40
52125;DHT22;38119;52.710;6.398;2023-03-14T15:48:26;7.40;99.80
52125;DHT22;38119;52.710;6.398;2023-03-14T15:55:06;7.20;99.90
52125;DHT22;38119;52.710;6.398;2023-03-14T15:57:54;7.20;99.90
52125;DHT22;38119;52.710;6.398;2023-03-14T16:00:39;7.20;99.90
52125;DHT22;38119;52.710;6.398;2023-03-14T16:03:05;8.40;99.90
52125;DHT22;38119;52.710;6.398;2023-03-14T16:05:31;7.00;99.90
52125;DHT22;38119;52.710;6.398;2023-03-14T16:07:58;7.00;99.90
52125;DHT22;38119;52.710;6.398;2023-03-14T16:10:23;7.80;99.90
52125;DHT22;38119;52.710;6.398;2023-03-14T16:13:10;7.80;99.90
52125;DHT22;38119;52.710;6.398;2023-03-14T16:16:01;6.90;99.90
52125;DHT22;38119;52.710;6.398;2023-03-14T16:18:39;6.90;99.90
52125;DHT22;38119;52.710;6.398;2023-03-14T16:21:18;6.60;99.90
52125;DHT22;38119;52.710;6.398;2023-03-14T16:24:01;6.90;99.90
52125;DHT22;38119;52.710;6.398;2023-03-14T16:26:46;6.90;99.90
52125;DHT22;38119;52.710;6.398;2023-03-14T16:29:13;6.90;99.90
52125;DHT22;38119;52.710;6.398;2023-03-14T16:31:47;7.50;99.90
52125;DHT22;38119;52.710;6.398;2023-03-14T16:34:56;6.70;99.90
52125;DHT22;38119;52.710;6.398;2023-03-14T16:37:24;6.70;99.90
52125;DHT22;38119;52.710;6.398;2023-03-14T16:40:00;6.60;99.90
52125;DHT22;38119;52.710;6.398;2023-03-14T16:42:26;6.50;99.90
52125;DHT22;38119;52.710;6.398;2023-03-14T16:44:52;6.50;99.90
52125;DHT22;38119;52.710;6.398;2023-03-14T16:47:18;6.50;99.90
52125;DHT22;38119;52.710;6.398;2023-03-14T16:49:44;7.80;99.90
52125;DHT22;38119;52.710;6.398;2023-03-14T16:52:09;7.00;99.90